Time;durP1;ratioP1;P1;durP2;ratioP2;P2;SDS_P1;SDS_P2;PMS_P1;PMS_P2;Temp;Humidity;BMP_temperature;BMP_pressure;BME280_temperature;BME280_humidity;BME280_pressure;Samples;Min_cycle;Max_cycle;Signal;HPM_P1;HPM_P2
2023/05/25 00:00:09;;;;;;;17.07;10.60;;;8.90;99.90;;;;;;5034061;28;20191;-64
2023/05/25 00:02:35;;;;;;;18.27;12.27;;;8.90;99.90;;;;;;5033968;28;20253;-65
2023/05/25 00:05:01;;;;;;;16.97;12.30;;;8.90;99.90;;;;;;5034378;28;20186;-64
2023/05/25 00:07:27;;;;;;;15.53;12.27;;;8.90;99.90;;;;;;5033978;28;20187;-64
2023/05/25 00:09:53;;;;;;;15.57;12.43;;;8.90;99.90;;;;;;5033437;28;20345;-64
2023/05/25 00:12:19;;;;;;;19.73;11.40;;;8.90;99.90;;;;;;5034257;28;20210;-64
2023/05/25 00:14:45;;;;;;;21.33;12.43;;;8.80;99.90;;;;;;5033779;28;20182;-64
2023/05/25 00:17:10;;;;;;;14.20;11.73;;;8.80;99.90;;;;;;5034111;28;20638;-64
2023/05/25 00:19:41;;;;;;;17.97;12.47;;;8.80;99.90;;;;;;5033385;28;20291;-64
2023/05/25 00:22:07;;;;;;;15.10;11.80;;;8.80;99.90;;;;;;5034093;28;20179;-64
2023/05/25 00:24:33;;;;;;;18.80;12.37;;;8.70;99.90;;;;;;5033808;28;20187;-64
2023/05/25 00:26:59;;;;;;;21.20;12.10;;;8.70;99.90;;;;;;5033703;28;20572;-64
2023/05/25 00:29:25;;;;;;;16.30;12.10;;;8.60;99.90;;;;;;5033278;28;20203;-64
2023/05/25 00:31:51;;;;;;;20.73;12.77;;;8.60;99.90;;;;;;5033650;28;20215;-65
2023/05/25 00:34:17;;;;;;;17.63;13.80;;;8.60;99.90;;;;;;5033644;28;20634;-64
2023/05/25 00:36:42;;;;;;;17.90;13.03;;;8.60;99.90;;;;;;5033617;28;20184;-64
2023/05/25 00:39:08;;;;;;;15.80;13.63;;;8.60;99.90;;;;;;5033083;28;20198;-64
2023/05/25 00:41:40;;;;;;;21.47;12.67;;;8.60;99.90;;;;;;5033635;28;20258;-64
2023/05/25 00:44:06;;;;;;;15.97;12.40;;;8.50;99.90;;;;;;5033490;28;20733;-64
2023/05/25 00:46:33;;;;;;;24.60;15.13;;;8.50;99.90;;;;;;5033452;28;20180;-64
2023/05/25 00:48:59;;;;;;;16.77;12.93;;;8.50;99.90;;;;;;5033121;28;20257;-64
2023/05/25 00:51:26;;;;;;;15.67;13.17;;;8.50;99.90;;;;;;5032394;28;20207;-64
2023/05/25 00:53:51;;;;;;;22.10;12.90;;;8.40;99.90;;;;;;5032998;28;20282;-64
2023/05/25 00:56:21;;;;;;;18.33;13.43;;;8.40;99.90;;;;;;5033344;28;20259;-64
2023/05/25 00:58:52;;;;;;;15.57;12.67;;;8.40;99.90;;;;;;5033202;28;20195;-64
2023/05/25 01:01:20;;;;;;;24.37;14.00;;;8.30;99.90;;;;;;5032961;28;20210;-64
2023/05/25 01:03:53;;;;;;;28.60;14.33;;;8.30;99.90;;;;;;5032883;28;20503;-64
2023/05/25 01:06:21;;;;;;;22.03;13.57;;;8.20;99.90;;;;;;5032158;28;20175;-64
2023/05/25 01:08:51;;;;;;;20.67;12.87;;;8.20;99.90;;;;;;5032734;28;20195;-64
2023/05/25 01:11:23;;;;;;;18.57;13.90;;;8.20;99.90;;;;;;5032515;28;20203;-64
2023/05/25 01:13:52;;;;;;;21.67;13.23;;;8.20;99.90;;;;;;5032656;28;20278;-64
2023/05/25 01:16:19;;;;;;;23.97;13.77;;;8.20;99.90;;;;;;5032677;28;20233;-64
2023/05/25 01:18:46;;;;;;;15.80;12.90;;;8.20;99.90;;;;;;5032865;28;20641;-64
2023/05/25 01:21:27;;;;;;;19.23;13.03;;;8.20;99.90;;;;;;5032373;28;20195;-64
2023/05/25 01:23:57;;;;;;;16.20;13.17;;;8.20;99.90;;;;;;5013110;28;20203;-64
2023/05/25 01:26:26;;;;;;;28.00;12.83;;;8.20;99.90;;;;;;5014220;28;20180;-64
2023/05/25 01:28:52;;;;;;;20.20;14.17;;;8.10;99.90;;;;;;5032600;28;20309;-64
2023/05/25 01:31:21;;;;;;;19.67;13.70;;;8.10;99.90;;;;;;5032257;28;20672;-64
2023/05/25 01:33:50;;;;;;;18.13;13.87;;;8.10;99.90;;;;;;5032536;28;20180;-64
2023/05/25 01:36:16;;;;;;;18.73;13.90;;;8.10;99.90;;;;;;5032613;28;20178;-64
2023/05/25 01:38:42;;;;;;;20.93;14.43;;;8.10;99.90;;;;;;5032163;28;20175;-64
2023/05/25 01:41:07;;;;;;;19.27;13.17;;;8.10;99.90;;;;;;5032010;28;20199;-64
2023/05/25 01:43:33;;;;;;;19.13;14.33;;;8.00;99.90;;;;;;5032419;28;20603;-64
2023/05/25 01:46:13;;;;;;;22.53;14.23;;;8.00;99.90;;;;;;5032104;28;20187;-64
2023/05/25 01:49:04;;;;;;;19.10;13.93;;;7.90;99.90;;;;;;5032220;28;20182;-64
2023/05/25 01:51:37;;;;;;;19.77;14.43;;;7.90;99.90;;;;;;5032113;28;20284;-64
2023/05/25 01:54:18;;;;;;;21.40;14.53;;;7.90;99.90;;;;;;5032363;28;20209;-64
2023/05/25 01:56:46;;;;;;;18.13;13.63;;;7.90;99.90;;;;;;5031869;28;20178;-64
2023/05/25 01:59:14;;;;;;;18.53;13.97;;;7.90;99.90;;;;;;5031987;28;20274;-64
2023/05/25 02:01:41;;;;;;;22.23;14.43;;;7.80;99.90;;;;;;5031753;28;20176;-64
2023/05/25 02:04:07;;;;;;;18.43;13.73;;;7.80;99.90;;;;;;5032114;28;20199;-64
2023/05/25 02:06:35;;;;;;;17.97;12.93;;;7.80;99.90;;;;;;5031738;28;20234;-64
2023/05/25 02:09:01;;;;;;;23.57;13.13;;;7.80;99.90;;;;;;5031847;28;20190;-64
2023/05/25 02:11:27;;;;;;;17.07;13.83;;;7.80;99.90;;;;;;5032063;28;20202;-64
2023/05/25 02:13:52;;;;;;;17.80;13.70;;;7.80;99.90;;;;;;5031878;28;20633;-64
2023/05/25 02:16:18;;;;;;;23.07;13.63;;;7.90;99.90;;;;;;5031820;28;20179;-68
2023/05/25 02:18:44;;;;;;;17.43;13.77;;;7.90;99.90;;;;;;5033370;28;20250;-71
2023/05/25 02:21:10;;;;;;;23.20;13.83;;;7.80;99.90;;;;;;5032391;28;20205;-69
2023/05/25 02:23:36;;;;;;;27.03;16.33;;;7.80;99.90;;;;;;5033235;28;20172;-69
2023/05/25 02:26:01;;;;;;;19.37;14.07;;;7.80;99.90;;;;;;5032697;28;20186;-68
2023/05/25 02:28:27;;;;;;;15.40;13.00;;;7.70;99.90;;;;;;5031866;28;20224;-69
2023/05/25 02:30:53;;;;;;;19.03;13.63;;;7.70;99.90;;;;;;5032388;28;20277;-66
2023/05/25 02:33:19;;;;;;;17.27;13.33;;;7.70;99.90;;;;;;5033113;28;20188;-70
2023/05/25 02:35:45;;;;;;;18.13;13.33;;;7.60;99.90;;;;;;5032673;28;20175;-68
2023/05/25 02:38:10;;;;;;;23.50;13.87;;;7.60;99.90;;;;;;5033207;28;20175;-67
2023/05/25 02:40:36;;;;;;;18.47;13.33;;;7.60;99.90;;;;;;5032347;28;20266;-69
2023/05/25 02:43:02;;;;;;;19.07;13.47;;;7.50;99.90;;;;;;5032976;28;20637;-67
2023/05/25 02:45:27;;;;;;;19.87;14.03;;;7.50;99.90;;;;;;5032707;28;20399;-69
2023/05/25 02:47:53;;;;;;;18.53;14.10;;;7.40;99.90;;;;;;5032650;28;20555;-68
2023/05/25 02:50:18;;;;;;;21.30;15.47;;;7.40;99.90;;;;;;5032465;28;20245;-69
2023/05/25 02:52:44;;;;;;;18.30;14.80;;;7.40;99.90;;;;;;5032396;28;20668;-66
2023/05/25 02:55:12;;;;;;;24.33;16.63;;;7.40;99.90;;;;;;5032914;28;20175;-67
2023/05/25 02:57:37;;;;;;;22.03;14.27;;;7.40;99.90;;;;;;5032809;28;20168;-65
2023/05/25 03:00:06;;;;;;;28.50;15.63;;;7.40;99.90;;;;;;5032204;28;20214;-69
2023/05/25 03:02:32;;;;;;;22.33;15.50;;;7.40;99.90;;;;;;5032738;28;20188;-70
2023/05/25 03:04:58;;;;;;;23.53;15.90;;;7.30;99.90;;;;;;5032601;28;20183;-68
2023/05/25 03:07:25;;;;;;;23.97;14.37;;;7.30;99.90;;;;;;5032172;28;20207;-70
2023/05/25 03:09:51;;;;;;;25.47;14.53;;;7.30;99.90;;;;;;5031935;28;20223;-68
2023/05/25 03:12:17;;;;;;;17.47;13.80;;;7.30;99.90;;;;;;5032354;28;20360;-70
2023/05/25 03:14:42;;;;;;;20.23;14.07;;;7.30;99.90;;;;;;5034569;28;20175;-67
2023/05/25 03:17:08;;;;;;;19.63;14.50;;;7.30;99.90;;;;;;5036937;28;20187;-67
2023/05/25 03:19:33;;;;;;;30.57;15.30;;;7.20;99.90;;;;;;5035059;28;20203;-68
2023/05/25 03:21:59;;;;;;;21.97;14.27;;;7.20;99.90;;;;;;5036553;28;20183;-70
2023/05/25 03:24:25;;;;;;;20.73;13.37;;;7.20;99.90;;;;;;5036515;28;20205;-68
2023/05/25 03:26:51;;;;;;;23.03;15.33;;;7.20;99.90;;;;;;5036178;28;20194;-71
2023/05/25 03:29:16;;;;;;;15.63;13.33;;;7.10;99.90;;;;;;5036464;28;20199;-69
2023/05/25 03:31:42;;;;;;;20.80;13.80;;;7.10;99.90;;;;;;5035733;28;20203;-68
2023/05/25 03:34:08;;;;;;;25.07;14.87;;;7.10;99.90;;;;;;5036576;28;20179;-67
2023/05/25 03:36:34;;;;;;;23.13;15.23;;;7.10;99.90;;;;;;5036581;28;20206;-67
2023/05/25 03:38:59;;;;;;;24.63;16.07;;;7.10;99.90;;;;;;5036281;28;20660;-70
2023/05/25 03:41:25;;;;;;;21.93;15.20;;;7.20;99.90;;;;;;5034585;28;20218;-65
2023/05/25 03:43:51;;;;;;;24.10;15.17;;;7.20;99.90;;;;;;5036076;28;20187;-68
2023/05/25 03:46:17;;;;;;;23.27;15.17;;;7.30;99.90;;;;;;5036109;28;20216;-70
2023/05/25 03:48:42;;;;;;;23.73;16.07;;;7.30;99.90;;;;;;5036257;28;20544;-67
2023/05/25 03:51:08;;;;;;;28.07;15.10;;;7.30;99.90;;;;;;5035679;28;20230;-70
2023/05/25 03:53:33;;;;;;;23.53;15.17;;;7.30;99.90;;;;;;5036355;28;20176;-69
2023/05/25 03:55:59;;;;;;;24.57;15.93;;;7.40;99.90;;;;;;5035962;28;20453;-65
2023/05/25 03:58:25;;;;;;;30.03;15.07;;;7.50;99.90;;;;;;5034440;28;20171;-65
2023/05/25 04:00:51;;;;;;;19.23;13.83;;;7.50;99.90;;;;;;5033849;28;20211;-65
2023/05/25 04:03:17;;;;;;;21.60;15.93;;;7.50;99.90;;;;;;5034685;28;20198;-65
2023/05/25 04:05:44;;;;;;;30.80;16.67;;;7.50;99.90;;;;;;5034097;28;20653;-64
2023/05/25 04:08:16;;;;;;;34.67;16.40;;;7.60;99.90;;;;;;5034243;28;20254;-65
2023/05/25 04:10:45;;;;;;;25.37;17.20;;;7.70;99.90;;;;;;5033602;28;20206;-65
2023/05/25 04:13:11;;;;;;;34.27;17.33;;;7.70;99.90;;;;;;5034246;28;20168;-65
2023/05/25 04:15:37;;;;;;;24.90;16.20;;;7.80;99.90;;;;;;5033868;28;20179;-65
2023/05/25 04:18:02;;;;;;;34.47;17.77;;;7.90;99.90;;;;;;5034432;28;20172;-65
2023/05/25 04:20:28;;;;;;;26.83;17.17;;;7.90;99.90;;;;;;5033775;28;20230;-65
2023/05/25 04:22:55;;;;;;;25.63;16.73;;;8.00;99.90;;;;;;5034021;28;20168;-65
2023/05/25 04:25:20;;;;;;;25.33;16.47;;;8.00;99.90;;;;;;5031923;28;20610;-65
2023/05/25 04:27:46;;;;;;;23.73;16.23;;;8.10;99.90;;;;;;5033367;28;20199;-65
2023/05/25 04:30:12;;;;;;;23.47;15.77;;;8.20;99.90;;;;;;5033613;28;20199;-65
2023/05/25 04:32:39;;;;;;;23.60;15.57;;;8.30;99.90;;;;;;5033805;28;20195;-65
2023/05/25 04:35:05;;;;;;;21.87;15.53;;;8.30;99.90;;;;;;5033827;28;20199;-65
2023/05/25 04:37:32;;;;;;;34.53;15.87;;;8.40;99.90;;;;;;5033549;28;20195;-65
2023/05/25 04:39:57;;;;;;;34.00;16.17;;;8.50;99.90;;;;;;5033355;28;20665;-65
2023/05/25 04:42:23;;;;;;;23.00;15.97;;;8.50;99.90;;;;;;5033533;28;20263;-65
2023/05/25 04:44:54;;;;;;;25.13;15.73;;;8.60;99.90;;;;;;5033320;28;20194;-65
2023/05/25 04:47:20;;;;;;;30.33;16.20;;;8.50;99.90;;;;;;5033764;28;20167;-65
2023/05/25 04:49:46;;;;;;;29.53;16.83;;;8.60;99.90;;;;;;5032846;28;20207;-65
2023/05/25 04:52:11;;;;;;;24.77;16.90;;;8.70;99.90;;;;;;5033481;28;20199;-64
2023/05/25 04:54:37;;;;;;;25.30;14.80;;;8.90;99.90;;;;;;5033077;28;20662;-65
2023/05/25 04:57:03;;;;;;;22.47;17.40;;;9.20;99.90;;;;;;5033465;28;20370;-65
2023/05/25 04:59:28;;;;;;;22.30;15.57;;;9.40;99.90;;;;;;5032769;28;20199;-66
2023/05/25 05:01:54;;;;;;;26.57;15.63;;;9.60;99.90;;;;;;5033259;28;20266;-64
2023/05/25 05:04:19;;;;;;;26.70;15.67;;;9.80;99.90;;;;;;5033000;28;20180;-65
2023/05/25 05:06:46;;;;;;;20.87;15.27;;;10.00;99.90;;;;;;5032804;28;20171;-65
2023/05/25 05:09:12;;;;;;;26.10;15.27;;;10.10;99.90;;;;;;5032828;28;20207;-65
2023/05/25 05:11:37;;;;;;;26.47;15.40;;;10.40;99.90;;;;;;5033055;28;20221;-65
2023/05/25 05:14:03;;;;;;;19.10;14.73;;;10.50;99.90;;;;;;5032871;28;20649;-66
2023/05/25 05:16:32;;;;;;;27.87;15.10;;;10.60;99.90;;;;;;5032758;28;20175;-65
2023/05/25 05:18:58;;;;;;;26.70;14.83;;;10.80;99.90;;;;;;5032894;28;20290;-65
2023/05/25 05:21:24;;;;;;;20.23;13.60;;;11.00;99.90;;;;;;5032488;28;20292;-65
2023/05/25 05:23:50;;;;;;;16.30;12.87;;;11.10;99.90;;;;;;5032778;28;20713;-66
2023/05/25 05:26:15;;;;;;;18.60;12.77;;;11.20;99.90;;;;;;5031649;28;20259;-66
2023/05/25 05:28:41;;;;;;;24.93;14.33;;;11.30;99.90;;;;;;5032104;28;20182;-66
2023/05/25 05:31:07;;;;;;;23.37;13.90;;;11.40;99.90;;;;;;5032138;28;20233;-65
2023/05/25 05:33:33;;;;;;;21.70;14.03;;;11.50;99.90;;;;;;5032422;28;20705;-65
2023/05/25 05:36:00;;;;;;;22.60;14.57;;;11.60;99.90;;;;;;5032574;28;20657;-65
2023/05/25 05:38:25;;;;;;;18.47;14.00;;;11.60;99.90;;;;;;5032101;28;20164;-65
2023/05/25 05:40:51;;;;;;;18.43;12.87;;;11.70;99.90;;;;;;5031989;28;20192;-65
2023/05/25 05:43:17;;;;;;;19.97;12.23;;;11.90;99.90;;;;;;5032583;28;20171;-65
2023/05/25 05:45:42;;;;;;;22.03;12.97;;;12.00;99.90;;;;;;5032118;28;20708;-65
2023/05/25 05:48:11;;;;;;;15.30;12.13;;;12.20;99.90;;;;;;5017597;28;20202;-66
2023/05/25 05:50:38;;;;;;;15.07;12.80;;;12.50;99.90;;;;;;5029593;28;20200;-65
2023/05/25 05:53:05;;;;;;;19.77;12.77;;;12.90;99.90;;;;;;5032278;28;20176;-66
2023/05/25 05:55:31;;;;;;;21.60;12.30;;;13.30;99.90;;;;;;5031833;28;20190;-66
2023/05/25 05:57:56;;;;;;;14.17;11.60;;;13.70;99.90;;;;;;5032181;28;20175;-66
2023/05/25 06:00:22;;;;;;;16.40;10.70;;;14.20;99.90;;;;;;5031480;28;20669;-66
2023/05/25 06:02:48;;;;;;;12.43;11.07;;;14.60;99.90;;;;;;5031867;28;20277;-66
2023/05/25 06:05:13;;;;;;;18.47;10.40;;;15.00;99.90;;;;;;5031842;28;20191;-66
2023/05/25 06:07:39;;;;;;;16.67;10.47;;;15.40;99.90;;;;;;5031864;28;20175;-66
2023/05/25 06:10:05;;;;;;;12.03;8.50;;;15.90;99.90;;;;;;5031228;28;20218;-65
2023/05/25 06:12:31;;;;;;;13.97;9.07;;;16.10;99.90;;;;;;5031867;28;20306;-66
2023/05/25 06:14:56;;;;;;;13.93;9.63;;;16.50;99.90;;;;;;5032022;28;20187;-66
2023/05/25 06:17:22;;;;;;;12.63;8.47;;;17.00;99.90;;;;;;5031917;28;20179;-66
2023/05/25 06:19:48;;;;;;;13.93;8.33;;;17.50;99.90;;;;;;5030966;28;20206;-66
2023/05/25 06:22:15;;;;;;;8.40;7.60;;;17.70;99.90;;;;;;5031807;28;20221;-66
2023/05/25 06:24:40;;;;;;;12.43;9.00;;;17.90;99.90;;;;;;5030732;28;20187;-66
2023/05/25 06:27:06;;;;;;;15.70;9.43;;;18.00;99.90;;;;;;5032016;28;20202;-66
2023/05/25 06:29:32;;;;;;;14.57;10.17;;;17.60;99.90;;;;;;5033889;28;20214;-65
2023/05/25 06:31:57;;;;;;;13.57;9.70;;;17.60;99.90;;;;;;5031484;28;20238;-66
2023/05/25 06:34:23;;;;;;;17.73;11.10;;;17.70;99.90;;;;;;5031411;28;20176;-66
2023/05/25 06:36:48;;;;;;;14.97;10.17;;;17.70;99.90;;;;;;5031477;28;20270;-65
2023/05/25 06:39:14;;;;;;;15.37;10.27;;;17.50;99.90;;;;;;5031198;28;20183;-65
2023/05/25 06:41:40;;;;;;;15.10;10.10;;;17.50;99.90;;;;;;5031082;28;20179;-66
2023/05/25 06:44:06;;;;;;;17.03;10.60;;;17.80;99.90;;;;;;5031610;28;20183;-66
2023/05/25 06:46:32;;;;;;;14.40;9.73;;;18.20;99.90;;;;;;5031405;28;20610;-65
2023/05/25 06:48:59;;;;;;;13.17;9.83;;;18.60;99.90;;;;;;5030777;28;20188;-65
2023/05/25 06:51:26;;;;;;;14.73;9.50;;;19.00;99.90;;;;;;5030494;28;20252;-65
2023/05/25 06:53:52;;;;;;;17.95;10.15;;;19.10;99.90;;;;;;5031339;28;20214;-65
2023/05/25 06:56:18;;;;;;;17.98;10.82;;;19.20;99.90;;;;;;5031040;28;20171;-65
2023/05/25 06:58:44;;;;;;;16.23;10.77;;;19.70;99.90;;;;;;5030669;28;20661;-66
2023/05/25 07:01:09;;;;;;;12.35;9.95;;;19.90;99.90;;;;;;5030618;28;20197;-63
2023/05/25 07:03:37;;;;;;;15.25;9.50;;;19.90;99.90;;;;;;5031167;28;20254;-63
2023/05/25 07:06:03;;;;;;;12.60;9.90;;;20.30;99.90;;;;;;5031038;28;20179;-63
2023/05/25 07:08:29;;;;;;;17.95;10.30;;;20.30;99.90;;;;;;5030704;28;20191;-63
2023/05/25 07:10:54;;;;;;;15.00;9.57;;;20.40;99.90;;;;;;5030849;28;20199;-64
2023/05/25 07:13:20;;;;;;;11.48;8.95;;;20.70;99.90;;;;;;5031272;28;20170;-63
2023/05/25 07:15:46;;;;;;;15.88;9.35;;;21.10;99.90;;;;;;5030629;28;20179;-63
2023/05/25 07:18:12;;;;;;;16.55;8.90;;;21.70;99.90;;;;;;5027736;28;20278;-66
2023/05/25 07:20:40;;;;;;;16.30;8.88;;;22.00;99.90;;;;;;5030680;28;20191;-66
2023/05/25 07:23:07;;;;;;;17.70;8.43;;;22.50;99.90;;;;;;5030913;28;20660;-66
2023/05/25 07:25:33;;;;;;;12.02;8.98;;;22.70;99.90;;;;;;5029766;28;20512;-66
2023/05/25 07:27:59;;;;;;;13.75;8.40;;;22.90;99.90;;;;;;5031022;28;20183;-66
2023/05/25 07:30:24;;;;;;;14.65;8.90;;;23.30;99.90;;;;;;5031089;28;20188;-66
2023/05/25 07:32:50;;;;;;;13.75;9.50;;;23.00;99.90;;;;;;5031235;28;20257;-66
2023/05/25 07:35:15;;;;;;;10.77;9.15;;;22.80;99.90;;;;;;5030698;28;20538;-65
2023/05/25 07:37:41;;;;;;;15.35;10.75;;;22.40;99.90;;;;;;5030639;28;20175;-66
2023/05/25 07:40:07;;;;;;;16.17;9.63;;;22.10;99.90;;;;;;5029916;28;20196;-66
2023/05/25 07:42:33;;;;;;;16.05;10.35;;;22.10;99.90;;;;;;5030568;28;20553;-66
2023/05/25 07:44:59;;;;;;;13.85;9.50;;;22.00;99.90;;;;;;5026593;28;20184;-65
2023/05/25 07:47:25;;;;;;;17.80;10.50;;;22.20;99.90;;;;;;5024456;28;20183;-66
2023/05/25 07:49:51;;;;;;;13.75;9.48;;;22.60;99.90;;;;;;5025485;28;20294;-66
2023/05/25 07:52:17;;;;;;;16.13;10.68;;;22.70;99.90;;;;;;5029999;28;20196;-65
2023/05/25 07:54:44;;;;;;;12.52;9.18;;;22.90;99.90;;;;;;5030221;28;20176;-66
2023/05/25 07:57:09;;;;;;;13.70;9.77;;;22.80;99.90;;;;;;5030918;28;20175;-66
2023/05/25 07:59:35;;;;;;;10.38;7.93;;;23.00;99.90;;;;;;5010888;28;20188;-66
2023/05/25 08:02:01;;;;;;;17.17;9.18;;;22.90;99.90;;;;;;5032388;28;20579;-66
2023/05/25 08:04:27;;;;;;;12.45;9.60;;;23.00;99.90;;;;;;5034617;28;20551;-66
2023/05/25 08:06:52;;;;;;;14.07;7.60;;;23.10;99.90;;;;;;5033178;28;20203;-66
2023/05/25 08:09:18;;;;;;;13.50;8.25;;;23.40;99.90;;;;;;5034136;28;20624;-66
2023/05/25 08:11:44;;;;;;;9.52;7.68;;;23.60;99.90;;;;;;5034366;28;20199;-66
2023/05/25 08:14:10;;;;;;;11.63;7.35;;;23.80;99.90;;;;;;5033953;28;20187;-66
2023/05/25 08:16:35;;;;;;;8.32;7.47;;;23.60;99.90;;;;;;5034048;28;20163;-66
2023/05/25 08:19:01;;;;;;;12.32;8.55;;;23.60;99.90;;;;;;5033712;28;20172;-66
2023/05/25 08:21:28;;;;;;;9.82;7.32;;;23.70;99.90;;;;;;5032118;28;20253;-66
2023/05/25 08:23:55;;;;;;;11.07;8.80;;;23.40;99.90;;;;;;5033624;28;20195;-65
2023/05/25 08:26:21;;;;;;;17.75;8.32;;;23.30;99.90;;;;;;5033336;28;20179;-66
2023/05/25 08:28:47;;;;;;;9.85;6.95;;;23.10;99.90;;;;;;5032912;28;20198;-63
2023/05/25 08:31:12;;;;;;;12.15;8.10;;;23.20;99.90;;;;;;5033263;28;20207;-63
2023/05/25 08:33:38;;;;;;;8.32;6.47;;;23.40;99.90;;;;;;5033306;28;20194;-63
2023/05/25 08:36:04;;;;;;;12.43;6.03;;;23.80;99.90;;;;;;5033369;28;20262;-64
2023/05/25 08:38:30;;;;;;;9.13;6.57;;;23.50;99.90;;;;;;5033346;28;20179;-66
2023/05/25 08:41:05;;;;;;;8.18;6.28;;;23.70;99.90;;;;;;5032709;28;20199;-67
2023/05/25 08:43:32;;;;;;;8.40;6.60;;;23.60;99.90;;;;;;5033208;28;20659;-67
2023/05/25 08:46:05;;;;;;;9.13;7.05;;;23.50;99.90;;;;;;5033397;28;20180;-67
2023/05/25 08:48:35;;;;;;;10.52;7.95;;;23.40;99.90;;;;;;5032914;28;20221;-66
2023/05/25 08:51:07;;;;;;;8.38;5.13;;;23.40;99.90;;;;;;5033234;28;20192;-64
2023/05/25 08:53:36;;;;;;;10.43;7.45;;;23.30;99.90;;;;;;5033329;28;20172;-64
2023/05/25 08:56:12;;;;;;;10.55;8.98;;;23.50;99.90;;;;;;5033360;28;20176;-66
2023/05/25 08:58:49;;;;;;;10.45;7.13;;;23.50;99.90;;;;;;5032700;28;20171;-66
2023/05/25 09:01:18;;;;;;;11.25;7.95;;;23.80;99.90;;;;;;5032636;28;20182;-67
2023/05/25 09:03:45;;;;;;;12.43;8.00;;;23.60;99.90;;;;;;5033109;28;20179;-64
2023/05/25 09:06:11;;;;;;;10.35;7.32;;;23.60;99.90;;;;;;5033008;28;20183;-64
2023/05/25 09:08:38;;;;;;;9.35;7.50;;;23.60;99.90;;;;;;5032804;28;20264;-64
2023/05/25 09:11:05;;;;;;;13.18;7.55;;;23.00;99.90;;;;;;5032229;28;20198;-66
2023/05/25 09:13:31;;;;;;;10.38;9.35;;;22.00;99.90;;;;;;5032648;28;20287;-66
2023/05/25 09:15:57;;;;;;;13.25;7.60;;;21.80;99.90;;;;;;5032782;28;20182;-66
2023/05/25 09:18:22;;;;;;;7.80;6.97;;;22.00;99.90;;;;;;5032827;28;20673;-66
2023/05/25 09:20:48;;;;;;;10.65;6.15;;;22.40;99.90;;;;;;5032199;28;20199;-66
2023/05/25 09:23:14;;;;;;;10.98;6.75;;;22.60;99.90;;;;;;5031983;28;20190;-67
2023/05/25 09:25:40;;;;;;;9.00;6.22;;;23.00;99.90;;;;;;5031897;28;20598;-66
2023/05/25 09:28:08;;;;;;;7.90;6.90;;;23.00;99.90;;;;;;5032861;28;20178;-66
2023/05/25 09:30:35;;;;;;;9.10;7.15;;;22.90;99.90;;;;;;5032212;28;20195;-66
2023/05/25 09:33:16;;;;;;;11.20;7.18;;;22.60;99.90;;;;;;5032675;28;20227;-67
2023/05/25 09:35:43;;;;;;;7.15;6.45;;;22.70;99.90;;;;;;5032606;28;20230;-67
2023/05/25 09:38:11;;;;;;;10.07;6.72;;;23.20;99.90;;;;;;5031980;28;20167;-64
2023/05/25 09:40:37;;;;;;;10.70;6.63;;;24.00;99.90;;;;;;5032137;28;20282;-64
2023/05/25 09:43:03;;;;;;;7.28;6.38;;;24.40;99.90;;;;;;5032703;28;20258;-64
2023/05/25 09:45:30;;;;;;;9.55;6.60;;;24.90;99.90;;;;;;5032522;28;20199;-64
2023/05/25 09:47:57;;;;;;;10.38;7.70;;;25.30;99.90;;;;;;5032731;28;20255;-66
2023/05/25 09:50:23;;;;;;;9.60;8.35;;;25.00;99.90;;;;;;5032219;28;20770;-66
2023/05/25 09:52:50;;;;;;;8.82;7.20;;;24.70;99.90;;;;;;5032591;28;20207;-66
2023/05/25 09:55:16;;;;;;;9.98;6.65;;;24.80;99.90;;;;;;5031392;28;20176;-67
2023/05/25 09:57:43;;;;;;;9.15;7.10;;;24.40;99.90;;;;;;5032658;28;20171;-67
2023/05/25 10:00:10;;;;;;;7.30;6.03;;;24.00;99.90;;;;;;5031077;28;20203;-67
2023/05/25 10:02:36;;;;;;;8.85;6.97;;;24.20;99.90;;;;;;5031058;28;20175;-66
2023/05/25 10:05:02;;;;;;;8.60;6.47;;;24.10;99.90;;;;;;5032340;28;20183;-67
2023/05/25 10:07:29;;;;;;;8.23;6.40;;;23.60;99.90;;;;;;5032175;28;20175;-66
2023/05/25 10:09:55;;;;;;;8.27;6.22;;;23.60;99.90;;;;;;5031725;28;20658;-66
2023/05/25 10:12:22;;;;;;;10.35;5.80;;;23.90;99.90;;;;;;5032065;28;20195;-66
2023/05/25 10:14:49;;;;;;;8.88;6.22;;;23.90;99.90;;;;;;5031998;28;20175;-67
2023/05/25 10:17:21;;;;;;;11.15;7.07;;;23.90;99.90;;;;;;5032111;28;20676;-67
2023/05/25 10:19:56;;;;;;;7.35;6.10;;;23.40;99.90;;;;;;5031615;28;20203;-67
2023/05/25 10:22:31;;;;;;;8.10;6.90;;;22.90;99.90;;;;;;5032016;28;20177;-66
2023/05/25 10:25:07;;;;;;;8.02;6.35;;;22.50;99.90;;;;;;5030958;28;20661;-66
2023/05/25 10:27:56;;;;;;;6.10;5.43;;;22.70;99.90;;;;;;5031948;28;20182;-67
2023/05/25 10:30:24;;;;;;;7.68;5.63;;;23.30;99.90;;;;;;5031460;28;20191;-66
2023/05/25 10:32:50;;;;;;;5.43;4.78;;;23.50;99.90;;;;;;5031623;28;20290;-66
2023/05/25 10:35:17;;;;;;;6.45;5.80;;;23.40;99.90;;;;;;5031775;28;20607;-67
2023/05/25 10:37:44;;;;;;;9.18;5.93;;;23.40;99.90;;;;;;5030735;28;20163;-66
2023/05/25 10:40:10;;;;;;;8.48;5.60;;;23.70;99.90;;;;;;5031673;28;20242;-67
2023/05/25 10:42:37;;;;;;;8.60;5.57;;;23.80;99.90;;;;;;5031657;28;20175;-67
2023/05/25 10:45:06;;;;;;;9.02;5.95;;;24.00;99.90;;;;;;5031644;28;20175;-66
2023/05/25 10:47:33;;;;;;;8.02;5.85;;;24.60;99.90;;;;;;5030417;28;20179;-66
2023/05/25 10:50:01;;;;;;;6.00;5.32;;;24.80;99.90;;;;;;5031187;28;20186;-66
2023/05/25 10:52:29;;;;;;;6.25;5.55;;;25.00;99.90;;;;;;5031577;28;20272;-66
2023/05/25 10:54:56;;;;;;;8.27;6.13;;;25.20;99.90;;;;;;5031579;28;20205;-66
2023/05/25 10:57:24;;;;;;;5.70;5.20;;;25.30;99.90;;;;;;5031602;28;20175;-66
2023/05/25 10:59:51;;;;;;;6.93;5.72;;;25.70;99.90;;;;;;5030968;28;20203;-66
2023/05/25 11:02:22;;;;;;;6.03;4.78;;;25.30;99.90;;;;;;5031716;28;20186;-67
2023/05/25 11:04:48;;;;;;;7.20;4.45;;;25.40;99.90;;;;;;5031612;28;20653;-64
2023/05/25 11:07:17;;;;;;;6.28;4.57;;;25.50;99.90;;;;;;5031600;28;20598;-64
2023/05/25 11:09:55;;;;;;;9.73;5.85;;;26.10;99.90;;;;;;5030859;28;20250;-65
2023/05/25 11:12:21;;;;;;;7.13;5.40;;;26.00;99.90;;;;;;5031300;28;20202;-64
2023/05/25 11:15:14;;;;;;;7.18;5.80;;;25.60;99.90;;;;;;5031277;28;20196;-64
2023/05/25 11:17:59;;;;;;;6.85;5.28;;;25.20;99.90;;;;;;5031185;28;20171;-65
2023/05/25 11:20:27;;;;;;;6.07;5.05;;;25.00;99.90;;;;;;5031045;28;20183;-64
2023/05/25 11:22:53;;;;;;;5.68;4.75;;;25.10;99.90;;;;;;5031124;28;20230;-64
2023/05/25 11:25:35;;;;;;;7.65;4.93;;;25.40;99.90;;;;;;5031512;28;20179;-65
2023/05/25 11:28:05;;;;;;;5.80;5.18;;;24.90;99.90;;;;;;5031274;28;20245;-64
2023/05/25 11:30:31;;;;;;;7.10;6.50;;;24.30;99.90;;;;;;5030877;28;20210;-65
2023/05/25 11:33:00;;;;;;;7.63;4.85;;;23.50;99.90;;;;;;5031046;28;20196;-64
2023/05/25 11:35:25;;;;;;;5.55;4.93;;;22.90;99.90;;;;;;5032737;28;20633;-64
2023/05/25 11:37:52;;;;;;;6.70;5.25;;;22.50;99.90;;;;;;5034124;28;20255;-64
2023/05/25 11:40:22;;;;;;;5.22;4.57;;;22.00;99.90;;;;;;5034637;28;20199;-64
2023/05/25 11:42:50;;;;;;;5.57;4.85;;;21.50;99.90;;;;;;5034812;28;20176;-64
2023/05/25 11:45:16;;;;;;;5.35;4.85;;;21.70;99.90;;;;;;5034880;28;20540;-66
2023/05/25 11:47:42;;;;;;;5.38;4.82;;;21.50;99.90;;;;;;5034940;28;20739;-64
2023/05/25 11:50:15;;;;;;;7.45;4.47;;;21.90;99.90;;;;;;5034406;28;20231;-64
2023/05/25 11:52:41;;;;;;;7.45;4.78;;;22.40;99.90;;;;;;5034641;28;20703;-64
2023/05/25 11:55:13;;;;;;;4.63;4.30;;;23.00;99.90;;;;;;5034543;28;20184;-65
2023/05/25 11:57:39;;;;;;;5.82;4.68;;;23.50;99.90;;;;;;5034588;28;20167;-64
2023/05/25 12:00:05;;;;;;;5.18;4.72;;;23.80;99.90;;;;;;5034309;28;20193;-65
2023/05/25 12:02:37;;;;;;;4.10;3.80;;;24.00;99.90;;;;;;5032408;28;20724;-65
2023/05/25 12:05:03;;;;;;;5.25;4.75;;;24.30;99.90;;;;;;5034498;28;20542;-65
2023/05/25 12:07:30;;;;;;;5.20;4.25;;;24.20;99.90;;;;;;5033131;28;20441;-65
2023/05/25 12:10:08;;;;;;;4.68;4.28;;;24.30;99.90;;;;;;5033670;28;20221;-66
2023/05/25 12:12:49;;;;;;;6.38;4.88;;;24.30;99.90;;;;;;5015533;28;20208;-65
2023/05/25 12:15:23;;;;;;;5.28;4.32;;;24.00;99.90;;;;;;5032100;28;20199;-65
2023/05/25 12:17:50;;;;;;;6.45;5.03;;;23.90;99.90;;;;;;5034164;28;20178;-65
2023/05/25 12:20:16;;;;;;;9.02;4.50;;;23.90;99.90;;;;;;5033356;28;20191;-65
2023/05/25 12:22:43;;;;;;;5.50;5.00;;;23.60;99.90;;;;;;5034000;28;20194;-64
2023/05/25 12:25:11;;;;;;;7.07;5.70;;;23.80;99.90;;;;;;5032704;28;20304;-65
2023/05/25 12:27:38;;;;;;;7.90;4.80;;;23.90;99.90;;;;;;5029027;28;20234;-65
2023/05/25 12:30:06;;;;;;;5.15;4.35;;;24.00;99.90;;;;;;5023986;28;20570;-65
2023/05/25 12:32:32;;;;;;;5.40;4.90;;;23.80;99.90;;;;;;5033667;28;20598;-65
2023/05/25 12:35:03;;;;;;;6.40;5.82;;;23.50;99.90;;;;;;5033659;28;20179;-64
2023/05/25 12:37:29;;;;;;;6.13;4.63;;;22.90;99.90;;;;;;5033929;28;20217;-64